首页
METAR-TAF:

METAR-TAF

机场 :

Crestview, 佛罗里达州, 美国

纬度: 30-46-20N, 经度: 086-31-12W, 海拔: 65米

当前天气观测

该预报发布于35分钟前的13:53 UTC
静风
温度 6°C
湿度 87%
气压 1022 hPa
能見度: 14.5公里
少量云层高于6000英尺
多云层高于7500英尺
阴天层高于9500英尺

METAR: KCEW 261353Z AUTO 00000KT 9SM FEW060 BKN075 OVC095 06/04 A3018 RMK AO2 SLP220 T00560039

时间: 08:28 (14:28 UTC)


TAF: 丢失

超过4000个机场的气象观测和天气预报(METAR&TAF报告)。

可查询的气象台以黄色和红色小点在地图上表示。

将鼠标移到小点上方,可查看气象台名称。

然后点击查看天气观测和预报。

如需切换地图:点击带黑十字的绿色按钮放大地图;点击带横线的绿色按钮缩小地图;或者点击绿色箭头查看邻近地区的地图。


METAR-TAF: